createdAt,value
2023-06-01T00:00:57.820Z,51.05
2023-06-01T00:03:24.803Z,51.20
2023-06-01T00:05:52.115Z,51.81
2023-06-01T00:08:18.889Z,51.57
2023-06-01T00:10:45.728Z,52.16
2023-06-01T00:13:12.450Z,52.20
2023-06-01T00:15:38.980Z,51.39
2023-06-01T00:18:06.936Z,52.89
2023-06-01T00:20:33.700Z,51.99
2023-06-01T00:23:00.671Z,52.42
2023-06-01T00:25:27.937Z,52.68
2023-06-01T00:27:54.479Z,52.99
2023-06-01T00:30:21.119Z,52.98
2023-06-01T00:32:47.796Z,52.65
2023-06-01T00:35:14.390Z,52.29
2023-06-01T00:37:40.939Z,53.48
2023-06-01T00:40:07.973Z,53.02
2023-06-01T00:42:34.561Z,53.55
2023-06-01T00:45:01.091Z,52.96
2023-06-01T00:47:27.841Z,53.05
2023-06-01T00:49:54.588Z,52.91
2023-06-01T00:52:23.249Z,52.29
2023-06-01T00:54:49.992Z,52.74
2023-06-01T00:57:17.449Z,52.98
2023-06-01T00:59:44.102Z,53.15
2023-06-01T01:02:14.654Z,53.09
2023-06-01T01:04:41.985Z,52.48
2023-06-01T01:07:27.301Z,52.94
2023-06-01T01:10:05.276Z,52.99
2023-06-01T01:12:50.759Z,52.76
2023-06-01T01:15:27.028Z,52.84
2023-06-01T01:18:06.535Z,53.07
2023-06-01T01:20:39.797Z,53.64
2023-06-01T01:23:15.194Z,54.06
2023-06-01T01:26:10.093Z,53.44
2023-06-01T01:28:43.061Z,53.59
2023-06-01T01:31:13.684Z,54.24
2023-06-01T01:33:42.293Z,53.90
2023-06-01T01:36:10.689Z,53.84
2023-06-01T01:38:38.446Z,53.75
2023-06-01T01:41:05.904Z,54.27
2023-06-01T01:43:32.864Z,53.73
2023-06-01T01:46:26.723Z,54.41
2023-06-01T01:49:10.818Z,54.17
2023-06-01T01:52:08.622Z,54.64
2023-06-01T01:54:42.849Z,54.94
2023-06-01T01:57:10.021Z,55.86
2023-06-01T01:59:37.290Z,55.24
2023-06-01T02:02:04.379Z,55.45
2023-06-01T02:04:31.512Z,55.67
2023-06-01T02:06:58.409Z,56.02
2023-06-01T02:09:24.954Z,55.91
2023-06-01T02:11:51.567Z,56.30
2023-06-01T02:14:18.175Z,56.40
2023-06-01T02:16:45.615Z,56.20
2023-06-01T02:19:12.346Z,56.85
2023-06-01T02:21:39.062Z,56.30
2023-06-01T02:24:07.787Z,56.83
2023-06-01T02:26:34.911Z,57.44
2023-06-01T02:29:06.563Z,57.38
2023-06-01T02:31:34.281Z,57.89
2023-06-01T02:34:00.913Z,57.53
2023-06-01T02:36:30.622Z,57.52
2023-06-01T02:38:57.596Z,57.63
2023-06-01T02:41:24.956Z,57.60
2023-06-01T02:43:51.815Z,58.10
2023-06-01T02:46:19.309Z,58.78
2023-06-01T02:48:46.950Z,58.68
2023-06-01T02:51:13.688Z,59.15
2023-06-01T02:53:41.160Z,59.11
2023-06-01T02:56:07.957Z,59.20
2023-06-01T02:58:34.513Z,59.43
2023-06-01T03:01:01.889Z,59.36
2023-06-01T03:03:29.040Z,59.62
2023-06-01T03:05:56.994Z,59.46
2023-06-01T03:08:25.975Z,59.97
2023-06-01T03:10:52.466Z,60.01
2023-06-01T03:13:19.107Z,59.72
2023-06-01T03:15:45.976Z,59.74
2023-06-01T03:18:12.715Z,59.63
2023-06-01T03:20:39.240Z,60.58
2023-06-01T03:23:05.685Z,60.72
2023-06-01T03:25:32.141Z,60.39
2023-06-01T03:27:58.662Z,60.72
2023-06-01T03:30:25.251Z,60.72
2023-06-01T03:32:52.265Z,60.95
2023-06-01T03:35:19.112Z,60.49
2023-06-01T03:37:47.389Z,61.33
2023-06-01T03:40:13.948Z,60.88
2023-06-01T03:42:47.489Z,61.86
2023-06-01T03:45:16.653Z,61.43
2023-06-01T03:47:43.365Z,61.60
2023-06-01T03:50:11.152Z,62.00
2023-06-01T03:52:38.557Z,62.08
2023-06-01T03:55:09.330Z,61.59
2023-06-01T03:57:37.007Z,62.42
2023-06-01T04:00:20.003Z,62.28
2023-06-01T04:02:49.495Z,62.42
2023-06-01T04:05:18.267Z,62.77
2023-06-01T04:07:50.131Z,62.91
2023-06-01T04:10:18.040Z,62.75
2023-06-01T04:12:45.972Z,62.88
2023-06-01T04:15:13.926Z,63.05
2023-06-01T04:17:42.152Z,62.54
2023-06-01T04:20:13.274Z,62.67
2023-06-01T04:22:40.872Z,63.13
2023-06-01T04:25:09.740Z,63.48
2023-06-01T04:27:37.816Z,63.44
2023-06-01T04:30:08.442Z,63.41
2023-06-01T04:32:36.336Z,63.67
2023-06-01T04:35:06.276Z,63.47
2023-06-01T04:37:40.346Z,63.66
2023-06-01T04:40:09.280Z,63.87
2023-06-01T04:42:50.673Z,63.42
2023-06-01T04:45:17.999Z,63.69
2023-06-01T04:47:46.575Z,63.96
2023-06-01T04:50:13.971Z,63.84
2023-06-01T04:52:42.041Z,64.48
2023-06-01T04:55:10.375Z,64.70
2023-06-01T04:57:40.121Z,64.86
2023-06-01T05:00:12.393Z,63.14
2023-06-01T05:02:40.992Z,63.27
2023-06-01T05:05:09.089Z,63.18
2023-06-01T05:07:37.635Z,62.61
2023-06-01T05:10:07.059Z,63.01
2023-06-01T05:12:35.211Z,63.23
2023-06-01T05:15:03.877Z,62.86
2023-06-01T05:17:30.528Z,62.18
2023-06-01T05:19:58.407Z,62.54
2023-06-01T05:22:25.461Z,61.20
2023-06-01T05:24:52.128Z,61.24
2023-06-01T05:27:18.961Z,62.46
2023-06-01T05:29:45.618Z,62.52
2023-06-01T05:32:13.275Z,62.26
2023-06-01T05:34:39.922Z,61.25
2023-06-01T05:37:06.577Z,61.67
2023-06-01T05:39:34.430Z,61.76
2023-06-01T05:42:00.987Z,60.73
2023-06-01T05:44:30.381Z,60.71
2023-06-01T05:46:56.955Z,60.14
2023-06-01T05:49:23.577Z,60.63
2023-06-01T05:51:50.647Z,60.35
2023-06-01T05:54:17.293Z,59.05
2023-06-01T05:56:43.887Z,60.27
2023-06-01T05:59:10.447Z,59.74
2023-06-01T06:01:37.522Z,58.80
2023-06-01T06:04:04.943Z,60.23
2023-06-01T06:06:32.678Z,60.45
2023-06-01T06:08:59.838Z,60.51
2023-06-01T06:11:27.221Z,58.53
2023-06-01T06:13:54.266Z,59.74
2023-06-01T06:16:21.064Z,58.92
2023-06-01T06:18:48.830Z,60.10
2023-06-01T06:21:18.241Z,58.38
2023-06-01T06:23:46.173Z,58.47
2023-06-01T06:26:12.845Z,58.45
2023-06-01T06:28:39.554Z,57.90
2023-06-01T06:31:06.076Z,57.19
2023-06-01T06:33:32.668Z,57.46
2023-06-01T06:35:59.261Z,57.88
2023-06-01T06:38:25.959Z,56.69
2023-06-01T06:40:52.775Z,55.42
2023-06-01T06:43:19.365Z,55.61
2023-06-01T06:45:45.905Z,55.84
2023-06-01T06:48:12.545Z,53.44
2023-06-01T06:50:39.553Z,53.95
2023-06-01T06:53:06.466Z,52.85
2023-06-01T06:55:32.986Z,52.34
2023-06-01T06:57:59.554Z,53.29
2023-06-01T07:00:27.107Z,52.85
2023-06-01T07:02:53.947Z,52.25
2023-06-01T07:05:20.895Z,51.33
2023-06-01T07:07:47.861Z,51.04
2023-06-01T07:10:14.590Z,52.58
2023-06-01T07:12:42.707Z,49.34
2023-06-01T07:15:09.545Z,50.67
2023-06-01T07:17:37.024Z,50.82
2023-06-01T07:20:07.531Z,50.55
2023-06-01T07:22:34.908Z,50.33
2023-06-01T07:25:01.751Z,48.52
2023-06-01T07:27:28.398Z,49.31
2023-06-01T07:29:57.083Z,49.31
2023-06-01T07:32:24.949Z,48.34
2023-06-01T07:34:52.286Z,48.82
2023-06-01T07:37:23.007Z,50.29
2023-06-01T07:39:50.441Z,49.39
2023-06-01T07:42:17.143Z,48.26
2023-06-01T07:44:44.193Z,49.39
2023-06-01T07:47:10.814Z,48.65
2023-06-01T07:49:37.479Z,48.73
2023-06-01T07:52:05.483Z,48.06
2023-06-01T07:54:36.014Z,48.84
2023-06-01T07:57:04.181Z,47.90
2023-06-01T07:59:31.543Z,46.83
2023-06-01T08:01:58.414Z,46.94
2023-06-01T08:04:25.709Z,46.26
2023-06-01T08:06:54.126Z,45.88
2023-06-01T08:09:24.752Z,46.15
2023-06-01T08:11:51.514Z,45.46
2023-06-01T08:14:19.905Z,45.60
2023-06-01T08:16:46.777Z,45.72
2023-06-01T08:19:13.387Z,44.66
2023-06-01T08:21:42.332Z,45.08
2023-06-01T08:24:13.739Z,45.39
2023-06-01T08:26:40.849Z,45.11
2023-06-01T08:29:07.340Z,46.35
2023-06-01T08:31:34.166Z,45.26
2023-06-01T08:34:00.930Z,43.86
2023-06-01T08:36:27.398Z,46.18
2023-06-01T08:38:56.945Z,44.69
2023-06-01T08:41:37.501Z,42.00
2023-06-01T08:44:06.938Z,42.63
2023-06-01T08:46:35.615Z,43.57
2023-06-01T08:49:02.772Z,44.71
2023-06-01T08:51:34.338Z,45.50
2023-06-01T08:54:04.705Z,45.24
2023-06-01T08:56:32.954Z,43.00
2023-06-01T08:59:01.446Z,43.80
2023-06-01T09:01:28.872Z,43.00
2023-06-01T09:03:55.550Z,41.96
2023-06-01T09:06:22.464Z,41.90
2023-06-01T09:08:49.130Z,41.39
2023-06-01T09:11:15.679Z,41.87
2023-06-01T09:13:42.966Z,42.26
2023-06-01T09:16:09.704Z,42.18
2023-06-01T09:18:37.476Z,41.17
2023-06-01T09:21:14.409Z,38.57
2023-06-01T09:23:42.539Z,36.90
2023-06-01T09:26:11.493Z,36.04
2023-06-01T09:28:57.345Z,34.18
2023-06-01T09:31:36.427Z,36.52
2023-06-01T09:34:03.247Z,35.09
2023-06-01T09:36:29.775Z,35.14
2023-06-01T09:39:06.940Z,32.74
2023-06-01T09:41:51.949Z,33.96
2023-06-01T09:44:32.765Z,33.85
2023-06-01T09:47:02.560Z,34.00
2023-06-01T09:49:33.532Z,34.25
2023-06-01T09:52:06.159Z,35.49
2023-06-01T09:54:33.870Z,30.25
2023-06-01T09:57:10.613Z,32.46
2023-06-01T09:59:39.789Z,33.02
2023-06-01T10:02:08.994Z,31.84
2023-06-01T10:04:42.239Z,30.87
2023-06-01T10:07:09.512Z,29.77
2023-06-01T10:09:39.931Z,32.25
2023-06-01T10:12:07.022Z,32.63
2023-06-01T10:14:34.721Z,33.47
2023-06-01T10:17:01.759Z,33.83
2023-06-01T10:19:28.543Z,32.53
2023-06-01T10:21:58.110Z,33.21
2023-06-01T10:24:25.053Z,32.34
2023-06-01T10:27:00.129Z,30.58
2023-06-01T10:29:30.309Z,30.09
2023-06-01T10:31:58.669Z,29.93
2023-06-01T10:34:37.375Z,31.17
2023-06-01T10:37:04.357Z,30.20
2023-06-01T10:39:32.497Z,31.64
2023-06-01T10:42:20.272Z,30.24
2023-06-01T10:44:48.936Z,29.83
2023-06-01T10:47:21.583Z,28.65
2023-06-01T10:49:48.085Z,31.09
2023-06-01T10:52:39.358Z,31.00
2023-06-01T10:55:12.294Z,30.86
2023-06-01T10:57:39.993Z,30.89
2023-06-01T11:00:27.631Z,28.42
2023-06-01T11:03:04.541Z,27.04
2023-06-01T11:05:35.113Z,29.57
2023-06-01T11:08:01.653Z,29.36
2023-06-01T11:10:50.037Z,27.21
2023-06-01T11:13:20.333Z,28.04
2023-06-01T11:16:15.382Z,28.81
2023-06-01T11:18:45.058Z,30.25
2023-06-01T11:21:17.451Z,28.54
2023-06-01T11:23:48.831Z,28.64
2023-06-01T11:26:17.666Z,28.92
2023-06-01T11:28:45.440Z,28.12
2023-06-01T11:31:14.704Z,26.50
2023-06-01T11:33:42.007Z,28.70
2023-06-01T11:36:11.337Z,28.57
2023-06-01T11:38:42.862Z,28.29
2023-06-01T11:41:10.160Z,26.69
2023-06-01T11:43:37.085Z,28.67
2023-06-01T11:46:17.755Z,28.13
2023-06-01T11:49:15.908Z,28.81
2023-06-01T11:51:43.473Z,28.42
2023-06-01T11:54:10.143Z,26.27
2023-06-01T11:56:40.261Z,26.02
2023-06-01T11:59:10.764Z,28.19
2023-06-01T12:01:46.141Z,26.08
2023-06-01T12:04:17.379Z,26.93
2023-06-01T12:06:44.110Z,25.99
2023-06-01T12:09:11.670Z,26.15
2023-06-01T12:11:39.155Z,24.33
2023-06-01T12:14:07.353Z,27.30
2023-06-01T12:16:59.617Z,25.53
2023-06-01T12:19:27.943Z,27.73
2023-06-01T12:21:56.552Z,27.57
2023-06-01T12:24:36.630Z,25.59
2023-06-01T12:27:14.011Z,26.47
2023-06-01T12:29:44.850Z,25.70
2023-06-01T12:32:13.509Z,24.21
2023-06-01T12:34:41.441Z,24.91
2023-06-01T12:37:18.455Z,24.64
2023-06-01T12:39:53.322Z,25.44
2023-06-01T12:42:20.142Z,25.31
2023-06-01T12:44:53.725Z,23.91
2023-06-01T12:47:20.266Z,24.76
2023-06-01T12:50:07.454Z,25.79
2023-06-01T12:52:33.999Z,26.44
2023-06-01T12:55:00.494Z,25.58
2023-06-01T12:57:27.007Z,26.33
2023-06-01T12:59:53.553Z,25.92
2023-06-01T13:02:20.470Z,25.10
2023-06-01T13:04:47.015Z,25.32
2023-06-01T13:07:13.566Z,27.51
2023-06-01T13:09:40.196Z,26.03
2023-06-01T13:12:07.114Z,26.12
2023-06-01T13:14:33.921Z,25.24
2023-06-01T13:17:00.522Z,25.07
2023-06-01T13:19:27.105Z,24.39
2023-06-01T13:21:53.757Z,23.64
2023-06-01T13:24:20.889Z,25.85
2023-06-01T13:26:48.263Z,22.22
2023-06-01T13:29:14.795Z,24.85
2023-06-01T13:31:41.400Z,23.70
2023-06-01T13:34:08.153Z,23.50
2023-06-01T13:36:36.148Z,25.47
2023-06-01T13:39:05.466Z,24.72
2023-06-01T13:41:32.327Z,25.11
2023-06-01T13:43:59.047Z,24.24
2023-06-01T13:46:26.154Z,25.99
2023-06-01T13:48:52.755Z,23.29
2023-06-01T13:51:19.450Z,23.40
2023-06-01T13:53:46.053Z,24.17
2023-06-01T13:56:12.586Z,22.70
2023-06-01T13:58:39.026Z,23.48
2023-06-01T14:01:05.737Z,23.25
2023-06-01T14:03:32.831Z,22.79
2023-06-01T14:05:59.336Z,21.79
2023-06-01T14:08:26.011Z,20.29
2023-06-01T14:10:52.533Z,22.46
2023-06-01T14:13:19.004Z,21.80
2023-06-01T14:15:45.535Z,22.83
2023-06-01T14:18:12.333Z,23.46
2023-06-01T14:20:39.272Z,24.47
2023-06-01T14:23:06.090Z,23.77
2023-06-01T14:25:32.525Z,22.52
2023-06-01T14:27:58.972Z,21.33
2023-06-01T14:30:27.563Z,22.93
2023-06-01T14:32:54.646Z,23.10
2023-06-01T14:35:21.786Z,21.55
2023-06-01T14:37:50.184Z,23.25
2023-06-01T14:40:17.293Z,21.52
2023-06-01T14:42:43.943Z,23.76
2023-06-01T14:45:12.376Z,25.48
2023-06-01T14:47:42.383Z,23.15
2023-06-01T14:50:09.713Z,22.11
2023-06-01T14:52:36.362Z,24.24
2023-06-01T14:55:02.828Z,23.45
2023-06-01T14:57:29.436Z,21.72
2023-06-01T15:00:04.113Z,23.12
2023-06-01T15:02:31.335Z,21.83
2023-06-01T15:04:58.011Z,23.69
2023-06-01T15:07:24.727Z,24.93
2023-06-01T15:09:51.276Z,24.67
2023-06-01T15:12:17.806Z,24.57
2023-06-01T15:14:44.361Z,22.47
2023-06-01T15:17:11.690Z,23.37
2023-06-01T15:19:38.258Z,25.30
2023-06-01T15:22:05.668Z,23.66
2023-06-01T15:24:32.528Z,24.73
2023-06-01T15:26:59.081Z,26.59
2023-06-01T15:29:25.716Z,26.41
2023-06-01T15:31:52.324Z,26.84
2023-06-01T15:34:20.581Z,27.52
2023-06-01T15:36:47.509Z,27.88
2023-06-01T15:39:14.487Z,27.77
2023-06-01T15:41:41.150Z,29.03
2023-06-01T15:44:08.127Z,28.42
2023-06-01T15:46:35.297Z,28.08
2023-06-01T15:49:01.940Z,29.47
2023-06-01T15:51:29.009Z,27.62
2023-06-01T15:53:55.524Z,28.24
2023-06-01T15:56:22.889Z,28.63
2023-06-01T15:58:50.979Z,29.43
2023-06-01T16:01:29.205Z,29.32
2023-06-01T16:03:57.101Z,28.87
2023-06-01T16:06:23.796Z,28.46
2023-06-01T16:08:52.753Z,30.03
2023-06-01T16:11:20.445Z,30.00
2023-06-01T16:13:47.244Z,30.53
2023-06-01T16:16:15.856Z,30.36
2023-06-01T16:18:43.193Z,29.03
2023-06-01T16:21:09.861Z,29.60
2023-06-01T16:23:36.792Z,30.40
2023-06-01T16:26:03.356Z,29.96
2023-06-01T16:28:30.039Z,30.58
2023-06-01T16:30:56.543Z,28.75
2023-06-01T16:33:23.013Z,28.84
2023-06-01T16:35:49.514Z,30.03
2023-06-01T16:38:16.030Z,30.58
2023-06-01T16:40:42.611Z,31.92
2023-06-01T16:43:09.456Z,30.80
2023-06-01T16:45:36.042Z,30.77
2023-06-01T16:48:03.087Z,30.57
2023-06-01T16:50:29.664Z,31.95
2023-06-01T16:52:57.341Z,31.40
2023-06-01T16:55:23.903Z,32.66
2023-06-01T16:57:50.828Z,29.80
2023-06-01T17:00:17.460Z,30.03
2023-06-01T17:02:44.322Z,30.24
2023-06-01T17:05:11.284Z,30.20
2023-06-01T17:07:37.776Z,31.68
2023-06-01T17:10:04.982Z,31.37
2023-06-01T17:12:32.431Z,30.96
2023-06-01T17:14:58.961Z,31.05
2023-06-01T17:17:26.675Z,29.88
2023-06-01T17:19:55.276Z,31.14
2023-06-01T17:22:22.032Z,31.49
2023-06-01T17:24:48.768Z,31.19
2023-06-01T17:27:15.572Z,32.05
2023-06-01T17:29:42.325Z,31.68
2023-06-01T17:32:08.787Z,32.05
2023-06-01T17:34:35.411Z,31.38
2023-06-01T17:37:02.163Z,31.19
2023-06-01T17:39:28.707Z,31.86
2023-06-01T17:41:56.927Z,31.55
2023-06-01T17:44:26.237Z,31.39
2023-06-01T17:46:53.569Z,31.92
2023-06-01T17:49:20.325Z,30.92
2023-06-01T17:51:46.939Z,31.08
2023-06-01T17:54:13.682Z,32.20
2023-06-01T17:56:40.287Z,32.07
2023-06-01T17:59:06.879Z,32.34
2023-06-01T18:01:33.554Z,31.72
2023-06-01T18:04:00.186Z,32.35
2023-06-01T18:06:26.978Z,31.74
2023-06-01T18:08:53.722Z,32.05
2023-06-01T18:11:20.611Z,32.29
2023-06-01T18:13:50.234Z,30.77
2023-06-01T18:16:16.872Z,31.80
2023-06-01T18:18:43.550Z,32.51
2023-06-01T18:21:10.139Z,33.45
2023-06-01T18:23:36.690Z,32.56
2023-06-01T18:26:03.692Z,32.13
2023-06-01T18:28:30.499Z,32.73
2023-06-01T18:30:57.388Z,33.95
2023-06-01T18:33:23.969Z,32.83
2023-06-01T18:35:50.524Z,32.16
2023-06-01T18:38:20.149Z,33.66
2023-06-01T18:40:46.844Z,33.95
2023-06-01T18:43:14.911Z,34.69
2023-06-01T18:45:44.271Z,34.38
2023-06-01T18:48:10.836Z,33.98
2023-06-01T18:50:37.468Z,33.43
2023-06-01T18:53:04.047Z,32.62
2023-06-01T18:55:30.569Z,32.12
2023-06-01T18:57:57.067Z,32.67
2023-06-01T19:00:23.616Z,33.98
2023-06-01T19:02:50.192Z,33.13
2023-06-01T19:05:23.962Z,34.18
2023-06-01T19:07:50.570Z,34.28
2023-06-01T19:10:47.859Z,34.25
2023-06-01T19:13:17.350Z,33.96
2023-06-01T19:15:43.829Z,33.54
2023-06-01T19:18:10.727Z,33.63
2023-06-01T19:20:40.681Z,33.82
2023-06-01T19:23:11.184Z,33.92
2023-06-01T19:25:38.368Z,33.52
2023-06-01T19:28:05.023Z,33.90
2023-06-01T19:30:33.424Z,33.62
2023-06-01T19:33:00.231Z,34.98
2023-06-01T19:35:29.072Z,34.95
2023-06-01T19:37:56.718Z,35.37
2023-06-01T19:40:23.565Z,35.69
2023-06-01T19:42:50.310Z,36.42
2023-06-01T19:45:22.892Z,36.59
2023-06-01T19:47:51.947Z,36.82
2023-06-01T19:50:25.068Z,37.00
2023-06-01T19:52:51.925Z,37.68
2023-06-01T19:55:18.551Z,37.27
2023-06-01T19:57:45.101Z,38.66
2023-06-01T20:00:12.383Z,37.98
2023-06-01T20:02:45.701Z,38.01
2023-06-01T20:05:18.933Z,38.57
2023-06-01T20:07:46.134Z,38.87
2023-06-01T20:10:20.118Z,38.19
2023-06-01T20:12:46.663Z,39.52
2023-06-01T20:15:13.107Z,39.23
2023-06-01T20:17:40.422Z,38.60
2023-06-01T20:20:07.577Z,38.34
2023-06-01T20:22:34.557Z,39.07
2023-06-01T20:25:03.439Z,37.94
2023-06-01T20:27:33.190Z,39.08
2023-06-01T20:30:03.280Z,38.60
2023-06-01T20:32:30.640Z,39.08
2023-06-01T20:34:57.272Z,38.82
2023-06-01T20:37:23.858Z,38.63
2023-06-01T20:39:52.641Z,38.96
2023-06-01T20:42:19.178Z,39.73
2023-06-01T20:44:46.171Z,40.07
2023-06-01T20:47:17.937Z,40.00
2023-06-01T20:49:44.636Z,38.84
2023-06-01T20:52:13.154Z,39.73
2023-06-01T20:54:39.694Z,40.67
2023-06-01T20:57:06.410Z,40.36
2023-06-01T20:59:33.306Z,40.15
2023-06-01T21:02:09.803Z,40.56
2023-06-01T21:04:41.112Z,39.95
2023-06-01T21:07:08.550Z,40.50
2023-06-01T21:09:35.269Z,40.29
2023-06-01T21:12:03.233Z,40.77
2023-06-01T21:14:31.786Z,40.14
2023-06-01T21:16:58.870Z,40.34
2023-06-01T21:19:25.626Z,41.09
2023-06-01T21:21:52.367Z,40.43
2023-06-01T21:24:19.060Z,41.96
2023-06-01T21:26:46.052Z,41.73
2023-06-01T21:29:12.711Z,41.95
2023-06-01T21:31:39.544Z,42.96
2023-06-01T21:34:06.244Z,42.42
2023-06-01T21:36:32.880Z,43.02
2023-06-01T21:38:59.622Z,43.47
2023-06-01T21:41:26.471Z,44.03
2023-06-01T21:43:53.327Z,43.11
2023-06-01T21:46:20.042Z,44.40
2023-06-01T21:48:46.802Z,44.42
2023-06-01T21:51:13.486Z,44.98
2023-06-01T21:53:40.130Z,45.11
2023-06-01T21:56:07.003Z,45.19
2023-06-01T21:58:38.114Z,45.43
2023-06-01T22:01:06.417Z,46.44
2023-06-01T22:03:33.577Z,47.20
2023-06-01T22:06:00.266Z,46.97
2023-06-01T22:08:27.045Z,46.68
2023-06-01T22:10:53.786Z,46.56
2023-06-01T22:13:20.610Z,47.46
2023-06-01T22:15:47.393Z,47.45
2023-06-01T22:18:14.315Z,47.92
2023-06-01T22:20:41.269Z,47.83
2023-06-01T22:23:09.637Z,47.69
2023-06-01T22:25:40.781Z,49.07
2023-06-01T22:28:07.603Z,48.24
2023-06-01T22:30:34.276Z,48.56
2023-06-01T22:33:01.669Z,48.46
2023-06-01T22:35:28.524Z,48.67
2023-06-01T22:37:55.379Z,48.76
2023-06-01T22:40:22.218Z,48.32
2023-06-01T22:42:50.040Z,48.10
2023-06-01T22:45:17.644Z,48.42
2023-06-01T22:47:44.277Z,48.54
2023-06-01T22:50:12.971Z,48.66
2023-06-01T22:52:39.841Z,48.68
2023-06-01T22:55:07.066Z,48.69
2023-06-01T22:57:34.273Z,48.73
2023-06-01T23:00:00.995Z,49.05
2023-06-01T23:02:27.875Z,48.50
2023-06-01T23:04:54.608Z,48.25
2023-06-01T23:07:21.939Z,48.28
2023-06-01T23:09:48.521Z,48.24
2023-06-01T23:12:15.190Z,48.28
2023-06-01T23:14:44.573Z,48.51
2023-06-01T23:17:15.919Z,48.11
2023-06-01T23:19:43.957Z,48.85
2023-06-01T23:22:13.148Z,48.49
2023-06-01T23:24:40.226Z,49.19
2023-06-01T23:27:07.632Z,48.92
2023-06-01T23:29:34.410Z,49.44
2023-06-01T23:32:01.074Z,49.89
2023-06-01T23:34:27.739Z,49.75
2023-06-01T23:36:56.277Z,50.11
2023-06-01T23:39:24.327Z,50.07
2023-06-01T23:41:51.301Z,49.52
2023-06-01T23:44:18.619Z,49.76
2023-06-01T23:46:46.214Z,49.86
2023-06-01T23:49:14.070Z,50.13
2023-06-01T23:51:41.117Z,50.32
2023-06-01T23:54:07.985Z,51.08
2023-06-01T23:56:34.815Z,50.63
2023-06-01T23:59:01.751Z,51.28
